Time;durP1;ratioP1;P1;durP2;ratioP2;P2;SDS_P1;SDS_P2;PMS_P1;PMS_P2;Temp;Humidity;BMP_temperature;BMP_pressure;BME280_temperature;BME280_humidity;BME280_pressure;Samples;Min_cycle;Max_cycle;Signal;HPM_P1;HPM_P2
2023/07/26 00:00:17;;;;;;;7.60;2.20;;;;;;;;;;110481;1275;22085;-78
2023/07/26 00:03:03;;;;;;;9.40;2.20;;;;;;;;;;110657;1275;22053;-77
2023/07/26 00:05:31;;;;;;;4.00;1.70;;;;;;;;;;110462;1268;22231;-76
2023/07/26 00:07:58;;;;;;;3.90;2.00;;;;;;;;;;110573;1275;22090;-76
2023/07/26 00:10:27;;;;;;;3.70;1.70;;;;;;;;;;110614;1275;22092;-78
2023/07/26 00:12:54;;;;;;;5.00;2.10;;;;;;;;;;110639;1275;22857;-77
2023/07/26 00:15:23;;;;;;;4.40;1.70;;;;;;;;;;110551;1269;22200;-78
2023/07/26 00:17:50;;;;;;;5.10;1.60;;;;;;;;;;110616;1275;22416;-77
2023/07/26 00:20:17;;;;;;;6.30;1.90;;;;;;;;;;110553;1275;22257;-77
2023/07/26 00:22:44;;;;;;;5.00;1.90;;;;;;;;;;110538;1275;22443;-77
2023/07/26 00:25:13;;;;;;;5.20;2.00;;;;;;;;;;110453;1266;22177;-76
2023/07/26 00:27:40;;;;;;;5.70;2.10;;;;;;;;;;110484;1274;22114;-77
2023/07/26 00:30:07;;;;;;;4.90;1.80;;;;;;;;;;110727;1260;22314;-77
2023/07/26 00:32:34;;;;;;;6.00;1.80;;;;;;;;;;110477;1275;22123;-77
2023/07/26 00:35:01;;;;;;;4.20;1.80;;;;;;;;;;110595;1256;22119;-77
2023/07/26 00:37:28;;;;;;;4.40;1.80;;;;;;;;;;110586;1275;22084;-76
2023/07/26 00:39:55;;;;;;;5.10;2.10;;;;;;;;;;110617;1275;22116;-77
2023/07/26 00:42:23;;;;;;;6.20;2.30;;;;;;;;;;110471;1275;22900;-77
2023/07/26 00:44:50;;;;;;;4.50;1.90;;;;;;;;;;110537;1251;22138;-79
2023/07/26 00:47:17;;;;;;;4.70;2.10;;;;;;;;;;110690;1274;22107;-78
2023/07/26 00:49:43;;;;;;;4.50;1.90;;;;;;;;;;110624;1272;22134;-77
2023/07/26 00:52:14;;;;;;;4.20;1.90;;;;;;;;;;110499;1274;22118;-77
2023/07/26 00:54:43;;;;;;;5.30;2.20;;;;;;;;;;110628;1252;22377;-77
2023/07/26 00:57:10;;;;;;;5.40;2.20;;;;;;;;;;110587;1275;22092;-78
2023/07/26 00:59:37;;;;;;;4.70;2.10;;;;;;;;;;110556;1275;22124;-79
2023/07/26 01:02:06;;;;;;;5.20;2.10;;;;;;;;;;110518;1275;22843;-78
2023/07/26 01:04:34;;;;;;;5.10;2.00;;;;;;;;;;110608;1264;22132;-78
2023/07/26 01:07:11;;;;;;;6.20;2.50;;;;;;;;;;110779;1256;22135;-80
2023/07/26 01:10:05;;;;;;;5.90;2.60;;;;;;;;;;110624;1274;22406;-77
2023/07/26 01:12:39;;;;;;;5.40;2.70;;;;;;;;;;110142;1280;22845;-79
2023/07/26 01:15:07;;;;;;;5.80;2.40;;;;;;;;;;110080;1257;22386;-79
2023/07/26 01:17:47;;;;;;;;;;;;;;;;;;;;;
2023/07/26 01:20:16;;;;;;;5.70;2.70;;;;;;;;;;110138;1280;22215;-78
2023/07/26 01:22:43;;;;;;;6.20;2.70;;;;;;;;;;110086;1280;22798;-79
2023/07/26 01:25:30;;;;;;;4.80;2.40;;;;;;;;;;110102;1280;22378;-81
2023/07/26 01:27:57;;;;;;;5.20;2.70;;;;;;;;;;110137;1280;22150;-77
2023/07/26 01:30:30;;;;;;;7.00;3.10;;;;;;;;;;110029;1280;22159;-78
2023/07/26 01:33:03;;;;;;;7.50;2.90;;;;;;;;;;110065;1280;22595;-77
2023/07/26 01:35:30;;;;;;;6.20;3.00;;;;;;;;;;110146;1280;22134;-77
2023/07/26 01:37:57;;;;;;;6.70;3.20;;;;;;;;;;110467;1260;22120;-76
2023/07/26 01:40:24;;;;;;;5.70;2.90;;;;;;;;;;110134;1280;22326;-78
2023/07/26 01:42:54;;;;;;;7.00;3.30;;;;;;;;;;110149;1276;23183;-78
2023/07/26 01:45:31;;;;;;;7.00;3.10;;;;;;;;;;110165;1273;22170;-80
2023/07/26 01:48:40;;;;;;;5.80;2.90;;;;;;;;;;110375;1261;22151;-79
2023/07/26 01:51:09;;;;;;;6.30;2.60;;;;;;;;;;110656;1274;22866;-77
2023/07/26 01:53:36;;;;;;;6.20;2.90;;;;;;;;;;110608;1274;22324;-78
2023/07/26 01:56:05;;;;;;;7.50;3.60;;;;;;;;;;110656;1254;22098;-79
2023/07/26 01:58:34;;;;;;;6.90;3.10;;;;;;;;;;110786;1258;23018;-77
2023/07/26 02:01:25;;;;;;;7.10;3.40;;;;;;;;;;110644;1275;22787;-77
2023/07/26 02:04:16;;;;;;;;;;;;;;;;;;;;;
2023/07/26 02:06:48;;;;;;;7.90;3.90;;;;;;;;;;110787;1251;22135;-78
2023/07/26 02:09:22;;;;;;;6.80;3.50;;;;;;;;;;110772;1273;22790;-77
2023/07/26 02:16:34;;;;;;;7.80;3.80;;;;;;;;;;110407;1277;22493;-78
2023/07/26 02:19:11;;;;;;;7.40;3.50;;;;;;;;;;110571;1271;22136;-78
2023/07/26 02:21:38;;;;;;;5.70;3.30;;;;;;;;;;110138;1278;22028;-78
2023/07/26 02:24:05;;;;;;;6.30;3.30;;;;;;;;;;110239;1278;22136;-79
2023/07/26 02:26:34;;;;;;;7.40;3.50;;;;;;;;;;110304;1278;22334;-81
2023/07/26 02:29:11;;;;;;;6.30;3.30;;;;;;;;;;110620;1270;22903;-79
2023/07/26 02:31:37;;;;;;;6.90;3.30;;;;;;;;;;110212;1277;22131;-78
2023/07/26 02:34:05;;;;;;;7.70;3.60;;;;;;;;;;110286;1277;22102;-78
2023/07/26 02:36:32;;;;;;;7.00;3.30;;;;;;;;;;110292;1278;22152;-78
2023/07/26 02:38:58;;;;;;;6.40;3.40;;;;;;;;;;110558;1260;22828;-77
2023/07/26 02:41:25;;;;;;;6.90;3.60;;;;;;;;;;110275;1278;22933;-79
2023/07/26 02:43:52;;;;;;;7.40;3.50;;;;;;;;;;110196;1268;22783;-77
2023/07/26 02:46:18;;;;;;;6.50;3.40;;;;;;;;;;110283;1278;22166;-80
2023/07/26 02:48:45;;;;;;;7.80;3.30;;;;;;;;;;110626;1258;22439;-77
2023/07/26 02:51:12;;;;;;;7.60;3.60;;;;;;;;;;110689;1273;22970;-78
2023/07/26 02:53:39;;;;;;;8.40;3.60;;;;;;;;;;110648;1273;22091;-78
2023/07/26 02:56:06;;;;;;;8.70;3.20;;;;;;;;;;110647;1273;22092;-80
2023/07/26 02:58:33;;;;;;;10.30;3.90;;;;;;;;;;110605;1256;22145;-82
2023/07/26 03:00:59;;;;;;;7.70;3.60;;;;;;;;;;110385;1275;22091;-81
2023/07/26 03:03:26;;;;;;;10.00;3.30;;;;;;;;;;110629;1275;22936;-77
2023/07/26 03:05:55;;;;;;;11.70;3.50;;;;;;;;;;110683;1275;22104;-77
2023/07/26 03:08:22;;;;;;;7.00;3.50;;;;;;;;;;110457;1256;22107;-78
2023/07/26 03:10:52;;;;;;;6.80;3.50;;;;;;;;;;110614;1273;22114;-80
2023/07/26 03:13:19;;;;;;;9.10;3.50;;;;;;;;;;110644;1273;21930;-78
2023/07/26 03:15:46;;;;;;;7.60;3.50;;;;;;;;;;110639;1273;22836;-77
2023/07/26 03:18:13;;;;;;;7.60;3.50;;;;;;;;;;110668;1251;22164;-77
2023/07/26 03:20:44;;;;;;;6.90;3.80;;;;;;;;;;110627;1275;22101;-77
2023/07/26 03:23:10;;;;;;;7.70;3.40;;;;;;;;;;110633;1275;23004;-77
2023/07/26 03:25:37;;;;;;;6.60;3.10;;;;;;;;;;110663;1275;22148;-77
2023/07/26 03:28:04;;;;;;;7.70;3.30;;;;;;;;;;110484;1274;22484;-77
2023/07/26 03:30:31;;;;;;;6.60;2.90;;;;;;;;;;110872;1257;22736;-78
2023/07/26 03:32:58;;;;;;;6.00;2.70;;;;;;;;;;110609;1273;22297;-77
2023/07/26 03:35:24;;;;;;;7.30;3.00;;;;;;;;;;110633;1274;22133;-79
2023/07/26 03:37:51;;;;;;;7.60;3.60;;;;;;;;;;110612;1275;22384;-79
2023/07/26 03:40:19;;;;;;;8.00;3.30;;;;;;;;;;110890;1253;22737;-78
2023/07/26 03:42:46;;;;;;;7.60;3.10;;;;;;;;;;110372;1275;22108;-79
2023/07/26 03:45:13;;;;;;;6.70;2.80;;;;;;;;;;110611;1272;22107;-79
2023/07/26 03:47:39;;;;;;;9.10;3.30;;;;;;;;;;110588;1275;22147;-78
2023/07/26 03:50:06;;;;;;;6.40;2.90;;;;;;;;;;110834;1259;22128;-78
2023/07/26 03:52:33;;;;;;;6.90;2.90;;;;;;;;;;110582;1274;22118;-82
2023/07/26 03:55:00;;;;;;;6.70;2.50;;;;;;;;;;110591;1274;22741;-78
2023/07/26 03:57:26;;;;;;;7.20;2.80;;;;;;;;;;110663;1274;22128;-77
2023/07/26 03:59:55;;;;;;;7.80;2.90;;;;;;;;;;110705;1258;22830;-79
2023/07/26 04:02:23;;;;;;;7.50;3.00;;;;;;;;;;110350;1267;22079;-78
2023/07/26 04:04:49;;;;;;;8.90;3.40;;;;;;;;;;110617;1275;22257;-78
2023/07/26 04:07:16;;;;;;;6.70;2.60;;;;;;;;;;110597;1275;22099;-80
2023/07/26 04:09:43;;;;;;;7.90;2.60;;;;;;;;;;110565;1259;22488;-77
2023/07/26 04:12:09;;;;;;;6.70;2.50;;;;;;;;;;110668;1274;22104;-80
2023/07/26 04:14:36;;;;;;;7.30;3.20;;;;;;;;;;110426;1274;22207;-79
2023/07/26 04:17:03;;;;;;;8.00;3.20;;;;;;;;;;110614;1274;22091;-78
2023/07/26 04:19:30;;;;;;;8.40;3.30;;;;;;;;;;110636;1253;22196;-79
2023/07/26 04:21:56;;;;;;;7.80;3.20;;;;;;;;;;110603;1275;22819;-78
2023/07/26 04:24:23;;;;;;;6.90;2.90;;;;;;;;;;110628;1275;22131;-79
2023/07/26 04:26:50;;;;;;;7.50;3.20;;;;;;;;;;110589;1275;22104;-80
2023/07/26 04:29:17;;;;;;;9.20;3.10;;;;;;;;;;110309;1275;22419;-81
2023/07/26 04:31:44;;;;;;;6.70;2.70;;;;;;;;;;110814;1259;22117;-80
2023/07/26 04:34:12;;;;;;;6.60;2.70;;;;;;;;;;110590;1274;22119;-80
2023/07/26 04:36:39;;;;;;;6.40;2.40;;;;;;;;;;110617;1260;22121;-78
2023/07/26 04:39:10;;;;;;;6.90;2.80;;;;;;;;;;110478;1275;22773;-77
2023/07/26 04:41:37;;;;;;;7.80;2.70;;;;;;;;;;110647;1259;22102;-79
2023/07/26 04:44:07;;;;;;;6.90;2.50;;;;;;;;;;110304;1276;22090;-79
2023/07/26 04:46:34;;;;;;;6.40;2.50;;;;;;;;;;110497;1276;22101;-79
2023/07/26 04:49:00;;;;;;;7.50;2.60;;;;;;;;;;110284;1276;22129;-79
2023/07/26 04:51:27;;;;;;;6.50;2.50;;;;;;;;;;110839;1256;22094;-77
2023/07/26 04:53:55;;;;;;;8.40;3.20;;;;;;;;;;110632;1275;22509;-78
2023/07/26 04:56:31;;;;;;;7.00;2.70;;;;;;;;;;110644;1275;22155;-81
2023/07/26 04:59:13;;;;;;;7.40;3.00;;;;;;;;;;110637;1275;22112;-79
2023/07/26 05:01:39;;;;;;;6.10;2.80;;;;;;;;;;110839;1259;22093;-77
2023/07/26 05:04:07;;;;;;;8.30;3.00;;;;;;;;;;110520;1276;22259;-78
2023/07/26 05:06:42;;;;;;;7.20;2.50;;;;;;;;;;110503;1276;22177;-78
2023/07/26 05:09:14;;;;;;;7.90;2.80;;;;;;;;;;110428;1276;22797;-77
2023/07/26 05:11:41;;;;;;;8.30;2.80;;;;;;;;;;110702;1256;22079;-77
2023/07/26 05:14:11;;;;;;;6.10;2.50;;;;;;;;;;110354;1275;22094;-78
2023/07/26 05:16:37;;;;;;;5.70;2.70;;;;;;;;;;110475;1275;22200;-79
2023/07/26 05:19:04;;;;;;;8.70;3.10;;;;;;;;;;110589;1275;22089;-77
2023/07/26 05:21:34;;;;;;;8.00;2.90;;;;;;;;;;110365;1262;22168;-78
2023/07/26 05:24:02;;;;;;;6.60;3.10;;;;;;;;;;110493;1276;22111;-78
2023/07/26 05:26:38;;;;;;;6.90;2.80;;;;;;;;;;110528;1276;22320;-77
2023/07/26 05:29:05;;;;;;;6.80;2.70;;;;;;;;;;110290;1276;23079;-78
2023/07/26 05:31:32;;;;;;;7.90;3.00;;;;;;;;;;110525;1259;22139;-78
2023/07/26 05:33:59;;;;;;;8.20;3.00;;;;;;;;;;110486;1275;22192;-77
2023/07/26 05:36:46;;;;;;;7.60;2.70;;;;;;;;;;110621;1275;22114;-76
2023/07/26 05:39:13;;;;;;;8.50;3.00;;;;;;;;;;110581;1275;22116;-78
2023/07/26 05:41:45;;;;;;;8.10;3.30;;;;;;;;;;110558;1259;22122;-77
2023/07/26 05:44:16;;;;;;;7.40;2.60;;;;;;;;;;110475;1276;22181;-77
2023/07/26 05:46:44;;;;;;;9.10;3.30;;;;;;;;;;110336;1276;22086;-77
2023/07/26 05:49:11;;;;;;;11.10;3.10;;;;;;;;;;110326;1276;22097;-80
2023/07/26 05:51:38;;;;;;;8.20;2.80;;;;;;;;;;110490;1260;22839;-77
2023/07/26 05:54:09;;;;;;;7.90;2.80;;;;;;;;;;110457;1275;22199;-78
2023/07/26 05:56:40;;;;;;;5.30;2.80;;;;;;;;;;110612;1275;22794;-77
2023/07/26 05:59:08;;;;;;;7.40;2.60;;;;;;;;;;110606;1275;22124;-80
2023/07/26 06:01:38;;;;;;;7.20;3.20;;;;;;;;;;110324;1254;21978;-80
2023/07/26 06:04:06;;;;;;;7.80;3.00;;;;;;;;;;110324;1276;22103;-77
2023/07/26 06:06:33;;;;;;;8.00;3.20;;;;;;;;;;110465;1276;22839;-80
2023/07/26 06:09:01;;;;;;;7.90;3.00;;;;;;;;;;110334;1276;22095;-77
2023/07/26 06:11:28;;;;;;;6.90;3.10;;;;;;;;;;110324;1253;22096;-78
2023/07/26 06:13:56;;;;;;;9.00;3.40;;;;;;;;;;110356;1275;22402;-77
2023/07/26 06:16:23;;;;;;;7.10;2.80;;;;;;;;;;110526;1275;22587;-77
2023/07/26 06:19:11;;;;;;;6.80;2.70;;;;;;;;;;110635;1275;22752;-78
2023/07/26 06:21:38;;;;;;;8.70;3.60;;;;;;;;;;110657;1255;22436;-77
2023/07/26 06:24:06;;;;;;;7.30;3.00;;;;;;;;;;110311;1276;22095;-77
2023/07/26 06:26:34;;;;;;;7.90;3.20;;;;;;;;;;110685;1276;22132;-82
2023/07/26 06:29:02;;;;;;;8.00;3.40;;;;;;;;;;110352;1276;22112;-77
2023/07/26 06:31:30;;;;;;;8.60;3.70;;;;;;;;;;110666;1266;22203;-77
2023/07/26 06:33:58;;;;;;;9.30;4.00;;;;;;;;;;110929;1260;22840;-79
2023/07/26 06:36:29;;;;;;;6.90;3.20;;;;;;;;;;110605;1276;22886;-76
2023/07/26 06:38:58;;;;;;;6.50;3.30;;;;;;;;;;110436;1260;22112;-77
2023/07/26 06:41:28;;;;;;;7.80;3.50;;;;;;;;;;110427;1276;22084;-77
2023/07/26 06:43:58;;;;;;;9.70;3.30;;;;;;;;;;110783;1260;22223;-78
2023/07/26 06:46:27;;;;;;;7.80;3.20;;;;;;;;;;110436;1266;22090;-78
2023/07/26 06:48:56;;;;;;;6.80;3.30;;;;;;;;;;110442;1277;22725;-77
2023/07/26 06:51:25;;;;;;;9.50;4.40;;;;;;;;;;110491;1277;22095;-76
2023/07/26 06:53:58;;;;;;;8.40;3.70;;;;;;;;;;110598;1259;22785;-79
2023/07/26 06:56:27;;;;;;;8.90;3.40;;;;;;;;;;110650;1276;22127;-76
2023/07/26 06:58:57;;;;;;;9.00;3.80;;;;;;;;;;110512;1276;22275;-80
2023/07/26 07:01:26;;;;;;;6.80;3.00;;;;;;;;;;110518;1276;22110;-78
2023/07/26 07:03:55;;;;;;;7.20;3.20;;;;;;;;;;110536;1260;22763;-77
2023/07/26 07:06:24;;;;;;;10.00;3.40;;;;;;;;;;110391;1277;22749;-76
2023/07/26 07:08:53;;;;;;;9.50;3.20;;;;;;;;;;110289;1275;22802;-76
2023/07/26 07:11:22;;;;;;;8.70;3.30;;;;;;;;;;110479;1273;22120;-77
2023/07/26 07:13:51;;;;;;;7.40;3.20;;;;;;;;;;110784;1253;22911;-78
2023/07/26 07:16:20;;;;;;;7.20;2.80;;;;;;;;;;110541;1276;22154;-78
2023/07/26 07:18:50;;;;;;;8.10;2.60;;;;;;;;;;110384;1276;22282;-76
2023/07/26 07:21:20;;;;;;;5.90;2.60;;;;;;;;;;110444;1276;22925;-77
2023/07/26 07:23:50;;;;;;;7.70;2.90;;;;;;;;;;110486;1260;22094;-77
2023/07/26 07:26:19;;;;;;;6.40;2.60;;;;;;;;;;110288;1277;22312;-79
2023/07/26 07:28:48;;;;;;;9.90;3.00;;;;;;;;;;110305;1277;22118;-77
2023/07/26 07:31:17;;;;;;;9.00;2.40;;;;;;;;;;110500;1278;22117;-76
2023/07/26 07:33:46;;;;;;;8.20;2.60;;;;;;;;;;110601;1257;22810;-77
2023/07/26 07:43:11;;;;;;;9.50;2.70;;;;;;;;;;103888;1292;545267;-79
2023/07/26 07:45:39;;;;;;;6.10;2.70;;;;;;;;;;106063;1287;23865;-76
2023/07/26 07:48:08;;;;;;;9.70;2.50;;;;;;;;;;106432;1287;22490;-78
2023/07/26 07:50:36;;;;;;;7.60;2.30;;;;;;;;;;106188;1287;22538;-77
2023/07/26 07:53:04;;;;;;;11.20;2.10;;;;;;;;;;106567;1268;25527;-79
2023/07/26 07:55:31;;;;;;;7.10;1.80;;;;;;;;;;106223;1287;22768;-79
2023/07/26 07:58:00;;;;;;;8.70;2.30;;;;;;;;;;104099;1284;3238559;-85
2023/07/26 08:00:27;;;;;;;8.40;2.20;;;;;;;;;;106517;1284;22541;-83
2023/07/26 08:02:54;;;;;;;6.60;2.40;;;;;;;;;;106410;1277;25412;-80
2023/07/26 08:05:21;;;;;;;7.10;2.20;;;;;;;;;;106516;1284;22549;-79
2023/07/26 08:07:50;;;;;;;7.10;2.10;;;;;;;;;;106381;1284;22533;-84
2023/07/26 08:10:17;;;;;;;6.50;2.10;;;;;;;;;;106471;1284;22608;-81
2023/07/26 08:12:44;;;;;;;7.70;2.30;;;;;;;;;;106579;1264;22531;-79
2023/07/26 08:15:11;;;;;;;8.40;2.40;;;;;;;;;;106556;1284;22656;-79
2023/07/26 08:17:41;;;;;;;8.70;2.40;;;;;;;;;;106847;1278;25227;-80
2023/07/26 08:20:11;;;;;;;7.10;2.30;;;;;;;;;;106871;1278;22523;-85
2023/07/26 08:22:38;;;;;;;7.00;2.30;;;;;;;;;;106964;1256;23174;-78
2023/07/26 08:25:06;;;;;;;6.50;2.20;;;;;;;;;;106769;1277;22530;-83
2023/07/26 08:27:33;;;;;;;8.50;2.30;;;;;;;;;;106982;1278;23000;-82
2023/07/26 08:29:59;;;;;;;7.60;2.30;;;;;;;;;;106859;1278;24245;-83
2023/07/26 08:32:29;;;;;;;8.80;2.10;;;;;;;;;;106905;1275;22995;-83
2023/07/26 08:34:58;;;;;;;7.60;2.20;;;;;;;;;;106764;1259;25392;-82
2023/07/26 08:37:25;;;;;;;6.80;2.30;;;;;;;;;;106712;1280;24252;-81
2023/07/26 08:39:52;;;;;;;5.90;2.00;;;;;;;;;;106746;1280;22527;-77
2023/07/26 08:42:21;;;;;;;5.70;1.80;;;;;;;;;;106829;1280;25230;-81
2023/07/26 08:44:55;;;;;;;8.40;2.00;;;;;;;;;;106788;1279;25455;-84
2023/07/26 08:47:24;;;;;;;6.40;2.00;;;;;;;;;;106682;1279;22526;-83
2023/07/26 08:49:51;;;;;;;8.10;2.20;;;;;;;;;;106882;1279;22520;-80
2023/07/26 08:52:18;;;;;;;7.20;2.20;;;;;;;;;;106830;1279;25223;-81
2023/07/26 08:54:55;;;;;;;8.50;2.40;;;;;;;;;;106756;1263;22640;-77
2023/07/26 08:57:25;;;;;;;7.50;2.00;;;;;;;;;;106905;1279;22762;-82
2023/07/26 08:59:52;;;;;;;7.80;2.40;;;;;;;;;;106836;1276;25183;-84
2023/07/26 09:02:19;;;;;;;6.10;1.90;;;;;;;;;;106727;1279;22946;-83
2023/07/26 09:04:49;;;;;;;6.90;2.20;;;;;;;;;;106884;1260;23138;-82
2023/07/26 09:07:15;;;;;;;6.70;2.20;;;;;;;;;;106825;1279;24272;-83
2023/07/26 09:09:43;;;;;;;8.00;2.10;;;;;;;;;;106709;1279;24321;-77
2023/07/26 09:12:16;;;;;;;7.80;2.30;;;;;;;;;;106727;1279;22650;-81
2023/07/26 09:14:44;;;;;;;7.70;2.40;;;;;;;;;;106841;1263;22521;-83
2023/07/26 09:17:13;;;;;;;7.70;2.20;;;;;;;;;;106810;1279;24231;-79
2023/07/26 09:19:40;;;;;;;8.60;2.50;;;;;;;;;;106824;1279;26481;-79
2023/07/26 09:22:17;;;;;;;8.50;2.30;;;;;;;;;;106730;1279;22523;-85
2023/07/26 09:24:48;;;;;;;7.00;2.10;;;;;;;;;;106914;1260;23883;-82
2023/07/26 09:27:15;;;;;;;5.80;2.10;;;;;;;;;;106924;1276;25172;-83
2023/07/26 09:29:52;;;;;;;6.70;2.20;;;;;;;;;;106853;1279;22543;-83
2023/07/26 09:32:26;;;;;;;6.40;2.10;;;;;;;;;;106915;1279;22527;-79
2023/07/26 09:34:52;;;;;;;6.30;1.70;;;;;;;;;;106973;1279;25238;-81
2023/07/26 09:37:27;;;;;;;8.70;2.20;;;;;;;;;;106780;1279;24205;-82
2023/07/26 09:39:54;;;;;;;6.80;2.00;;;;;;;;;;106901;1279;22527;-86
2023/07/26 09:42:22;;;;;;;7.20;2.10;;;;;;;;;;106787;1279;24304;-77
2023/07/26 09:44:58;;;;;;;6.10;2.00;;;;;;;;;;106881;1259;22539;-85
2023/07/26 09:47:33;;;;;;;5.20;1.90;;;;;;;;;;106672;1279;24369;-79
2023/07/26 09:50:00;;;;;;;5.40;1.60;;;;;;;;;;106779;1275;22547;-86
2023/07/26 09:52:30;;;;;;;6.70;2.10;;;;;;;;;;106654;1280;24193;-86
2023/07/26 09:55:00;;;;;;;5.10;1.60;;;;;;;;;;106866;1263;22538;-77
2023/07/26 09:57:29;;;;;;;6.30;1.70;;;;;;;;;;106839;1280;25382;-78
2023/07/26 10:00:01;;;;;;;6.20;1.70;;;;;;;;;;106889;1278;25227;-82
2023/07/26 10:02:30;;;;;;;6.80;1.90;;;;;;;;;;106911;1279;25267;-79
2023/07/26 10:04:59;;;;;;;6.90;2.10;;;;;;;;;;106836;1258;22530;-78
2023/07/26 10:07:31;;;;;;;7.00;2.10;;;;;;;;;;106798;1280;25491;-77
2023/07/26 10:10:00;;;;;;;6.00;1.80;;;;;;;;;;106863;1280;22531;-84
2023/07/26 10:12:30;;;;;;;7.10;1.70;;;;;;;;;;106661;1280;22545;-81
2023/07/26 10:14:58;;;;;;;7.40;1.80;;;;;;;;;;106824;1266;25373;-81
2023/07/26 10:17:26;;;;;;;7.90;2.10;;;;;;;;;;106534;1280;25286;-81
2023/07/26 10:20:09;;;;;;;;;;;;;;;;;;;;;
2023/07/26 10:23:00;;;;;;;5.50;1.80;;;;;;;;;;106845;1270;24374;-85
2023/07/26 10:25:28;;;;;;;7.70;1.90;;;;;;;;;;106741;1273;25535;-78
2023/07/26 10:27:56;;;;;;;7.50;1.80;;;;;;;;;;106816;1280;22532;-82
2023/07/26 10:30:33;;;;;;;4.40;1.70;;;;;;;;;;106816;1280;22534;-81
2023/07/26 10:33:02;;;;;;;6.20;1.50;;;;;;;;;;106832;1280;22539;-86
2023/07/26 10:35:34;;;;;;;6.30;1.30;;;;;;;;;;106705;1257;22599;-76
2023/07/26 10:38:07;;;;;;;7.40;1.90;;;;;;;;;;106806;1280;22648;-79
2023/07/26 10:40:36;;;;;;;5.20;1.80;;;;;;;;;;106730;1279;22659;-77
2023/07/26 10:43:22;;;;;;;5.20;1.60;;;;;;;;;;106688;1279;22606;-80
2023/07/26 10:45:51;;;;;;;5.40;1.50;;;;;;;;;;106695;1279;22534;-86
2023/07/26 10:48:37;;;;;;;5.90;1.50;;;;;;;;;;106832;1279;22610;-83
2023/07/26 10:51:46;;;;;;;5.50;1.60;;;;;;;;;;106802;1279;22541;-79
2023/07/26 10:54:30;;;;;;;6.70;2.10;;;;;;;;;;106879;1275;22531;-80
2023/07/26 10:57:36;;;;;;;4.90;1.80;;;;;;;;;;106872;1263;26508;-76
2023/07/26 11:00:21;;;;;;;;;;;;;;;;;;;;;
2023/07/26 11:02:49;;;;;;;8.40;2.00;;;;;;;;;;106944;1273;22530;-81
2023/07/26 11:05:20;;;;;;;5.40;1.80;;;;;;;;;;106837;1278;22535;-79
2023/07/26 11:08:24;;;;;;;7.90;2.30;;;;;;;;;;106834;1263;25294;-80
2023/07/26 11:11:10;;;;;;;6.40;2.20;;;;;;;;;;106955;1270;24259;-83
2023/07/26 11:13:42;;;;;;;7.90;1.90;;;;;;;;;;106947;1277;22527;-81
2023/07/26 11:16:14;;;;;;;8.30;2.40;;;;;;;;;;106951;1256;25328;-80
2023/07/26 11:18:41;;;;;;;5.80;2.00;;;;;;;;;;106936;1277;24171;-79
2023/07/26 11:21:15;;;;;;;6.20;1.80;;;;;;;;;;106932;1277;22517;-78
2023/07/26 11:23:42;;;;;;;7.10;2.00;;;;;;;;;;106947;1277;22651;-78
2023/07/26 11:26:09;;;;;;;5.20;1.90;;;;;;;;;;106821;1277;22595;-77
2023/07/26 11:28:39;;;;;;;5.90;2.00;;;;;;;;;;106942;1269;22534;-77
2023/07/26 11:31:17;;;;;;;8.90;2.10;;;;;;;;;;106914;1277;23138;-86
2023/07/26 11:33:44;;;;;;;6.30;1.90;;;;;;;;;;106922;1277;25591;-79
2023/07/26 11:36:26;;;;;;;5.80;1.90;;;;;;;;;;106872;1277;22487;-77
2023/07/26 11:38:53;;;;;;;4.50;1.70;;;;;;;;;;106902;1277;25350;-80
2023/07/26 11:41:26;;;;;;;4.90;1.80;;;;;;;;;;106917;1277;25459;-81
2023/07/26 11:44:13;;;;;;;5.30;1.80;;;;;;;;;;106922;1266;25230;-78
2023/07/26 11:46:47;;;;;;;6.10;2.10;;;;;;;;;;106918;1256;25360;-80
2023/07/26 11:49:19;;;;;;;4.90;2.00;;;;;;;;;;106825;1277;25291;-79
2023/07/26 11:51:46;;;;;;;7.40;2.10;;;;;;;;;;106948;1277;22531;-83
2023/07/26 11:54:13;;;;;;;5.80;1.70;;;;;;;;;;106868;1277;25432;-77
2023/07/26 11:56:41;;;;;;;5.60;1.80;;;;;;;;;;107004;1275;22566;-75
2023/07/26 11:59:38;;;;;;;;;;;;;;;;;;;;;
2023/07/26 12:02:26;;;;;;;6.10;1.70;;;;;;;;;;106905;1278;24329;-79
2023/07/26 12:05:15;;;;;;;7.80;2.10;;;;;;;;;;106969;1278;24055;-77
2023/07/26 12:08:05;;;;;;;7.00;1.80;;;;;;;;;;106876;1260;23873;-77
2023/07/26 12:10:39;;;;;;;8.70;2.10;;;;;;;;;;106932;1278;22529;-79
2023/07/26 12:13:08;;;;;;;5.90;1.70;;;;;;;;;;106875;1278;22536;-78
2023/07/26 12:16:10;;;;;;;6.20;1.80;;;;;;;;;;106976;1278;25373;-77
2023/07/26 12:19:00;;;;;;;5.40;1.40;;;;;;;;;;106486;1283;22540;-77
2023/07/26 12:21:38;;;;;;;6.20;1.50;;;;;;;;;;106541;1283;22535;-83
2023/07/26 12:24:28;;;;;;;;;;;;;;;;;;;;;
2023/07/26 12:27:15;;;;;;;4.70;1.40;;;;;;;;;;106496;1283;22977;-81
2023/07/26 12:29:42;;;;;;;3.60;1.80;;;;;;;;;;106525;1273;24185;-78
2023/07/26 12:32:18;;;;;;;4.20;1.40;;;;;;;;;;106491;1279;22529;-88
2023/07/26 12:34:47;;;;;;;6.70;2.00;;;;;;;;;;106513;1283;22533;-81
2023/07/26 12:37:14;;;;;;;5.10;1.50;;;;;;;;;;106515;1283;22538;-83
2023/07/26 12:39:48;;;;;;;5.60;2.00;;;;;;;;;;106544;1274;25397;-82
2023/07/26 12:42:15;;;;;;;8.20;2.30;;;;;;;;;;106508;1283;25676;-80
2023/07/26 12:44:41;;;;;;;5.60;1.80;;;;;;;;;;106564;1283;22573;-79
2023/07/26 12:47:08;;;;;;;5.20;1.60;;;;;;;;;;106458;1283;22550;-87
2023/07/26 12:49:45;;;;;;;5.90;1.80;;;;;;;;;;106425;1266;22534;-84
2023/07/26 12:52:12;;;;;;;6.50;2.20;;;;;;;;;;106466;1283;22533;-79
2023/07/26 12:54:39;;;;;;;5.30;1.70;;;;;;;;;;106747;1278;22732;-77
2023/07/26 12:57:09;;;;;;;5.50;1.60;;;;;;;;;;106940;1270;25357;-78
2023/07/26 12:59:41;;;;;;;7.70;2.10;;;;;;;;;;106940;1276;25230;-79
2023/07/26 13:02:19;;;;;;;6.40;2.00;;;;;;;;;;106926;1275;23909;-81
2023/07/26 13:04:46;;;;;;;7.10;2.60;;;;;;;;;;106907;1274;22530;-80
2023/07/26 13:07:16;;;;;;;7.60;2.70;;;;;;;;;;106818;1278;22585;-84
2023/07/26 13:09:45;;;;;;;6.40;2.50;;;;;;;;;;106826;1269;22527;-80
2023/07/26 13:12:19;;;;;;;6.90;2.40;;;;;;;;;;106872;1278;24254;-84
2023/07/26 13:14:46;;;;;;;6.10;1.90;;;;;;;;;;106983;1272;25284;-79
2023/07/26 13:17:13;;;;;;;6.10;1.60;;;;;;;;;;106988;1278;24244;-87
2023/07/26 13:19:40;;;;;;;5.00;1.90;;;;;;;;;;106955;1259;22486;-84
2023/07/26 13:22:06;;;;;;;5.80;1.60;;;;;;;;;;106999;1278;22544;-79
2023/07/26 13:24:33;;;;;;;4.30;1.70;;;;;;;;;;106917;1278;22530;-80
2023/07/26 13:27:21;;;;;;;6.70;1.80;;;;;;;;;;106843;1278;24292;-79
2023/07/26 13:29:50;;;;;;;4.30;1.50;;;;;;;;;;106855;1259;25231;-84
2023/07/26 13:32:17;;;;;;;5.80;2.10;;;;;;;;;;106865;1278;24375;-85
2023/07/26 13:34:44;;;;;;;4.90;1.70;;;;;;;;;;106896;1278;24221;-82
2023/07/26 13:37:11;;;;;;;5.70;2.10;;;;;;;;;;106855;1278;22526;-85
2023/07/26 13:39:38;;;;;;;5.50;1.70;;;;;;;;;;106873;1260;25430;-84
2023/07/26 13:42:05;;;;;;;4.70;1.60;;;;;;;;;;106881;1278;22620;-80
2023/07/26 13:44:31;;;;;;;7.10;1.90;;;;;;;;;;106865;1278;22492;-82
2023/07/26 13:46:58;;;;;;;4.80;1.70;;;;;;;;;;106863;1278;24205;-77
2023/07/26 13:49:34;;;;;;;3.70;1.50;;;;;;;;;;106847;1270;25265;-80
2023/07/26 13:52:01;;;;;;;5.50;1.70;;;;;;;;;;106867;1271;25350;-80
2023/07/26 13:54:30;;;;;;;5.20;1.80;;;;;;;;;;106873;1270;22527;-79
2023/07/26 13:57:08;;;;;;;6.10;1.80;;;;;;;;;;107029;1278;22538;-78
2023/07/26 13:59:38;;;;;;;5.30;1.90;;;;;;;;;;106919;1254;24222;-76
2023/07/26 14:02:14;;;;;;;3.80;1.50;;;;;;;;;;106996;1278;22526;-82
2023/07/26 14:04:41;;;;;;;4.30;1.50;;;;;;;;;;106963;1278;24577;-78
2023/07/26 14:07:08;;;;;;;7.90;1.70;;;;;;;;;;110253;1276;22348;-77
2023/07/26 14:09:34;;;;;;;4.90;1.70;;;;;;;;;;110427;1254;21883;-78
2023/07/26 14:12:01;;;;;;;4.90;2.00;;;;;;;;;;110478;1278;22300;-76
2023/07/26 14:14:39;;;;;;;5.10;1.60;;;;;;;;;;110441;1278;22097;-76
2023/07/26 14:17:06;;;;;;;5.40;1.80;;;;;;;;;;110411;1277;22156;-79
2023/07/26 14:19:33;;;;;;;4.30;1.70;;;;;;;;;;110290;1277;23111;-79
2023/07/26 14:22:03;;;;;;;4.40;1.80;;;;;;;;;;110530;1257;22118;-78
2023/07/26 14:24:30;;;;;;;6.10;1.80;;;;;;;;;;110469;1278;22804;-78
2023/07/26 14:26:57;;;;;;;4.60;1.70;;;;;;;;;;110433;1278;22778;-76
2023/07/26 14:29:26;;;;;;;5.80;1.90;;;;;;;;;;110387;1277;22100;-79
2023/07/26 14:31:56;;;;;;;4.40;1.50;;;;;;;;;;110238;1257;22764;-79
2023/07/26 14:34:23;;;;;;;3.90;1.70;;;;;;;;;;110418;1278;22217;-76
2023/07/26 14:36:52;;;;;;;5.80;1.70;;;;;;;;;;110415;1278;22852;-78
2023/07/26 14:39:19;;;;;;;5.50;1.90;;;;;;;;;;110435;1278;22718;-77
2023/07/26 14:41:46;;;;;;;3.80;1.50;;;;;;;;;;110613;1259;22329;-77
2023/07/26 14:44:14;;;;;;;4.10;1.60;;;;;;;;;;110320;1278;22847;-78
2023/07/26 14:46:40;;;;;;;4.00;1.60;;;;;;;;;;110449;1277;22128;-77
2023/07/26 14:49:07;;;;;;;4.20;1.60;;;;;;;;;;110308;1277;22142;-77
2023/07/26 14:51:44;;;;;;;5.10;1.60;;;;;;;;;;110441;1260;22174;-76
2023/07/26 14:54:10;;;;;;;4.90;1.60;;;;;;;;;;110418;1277;22111;-77
2023/07/26 14:56:37;;;;;;;4.10;1.50;;;;;;;;;;110431;1278;22110;-76
2023/07/26 15:02:46;;;;;;;5.90;1.50;;;;;;;;;;110040;1263;22204;-76
2023/07/26 15:05:16;;;;;;;4.60;1.90;;;;;;;;;;110048;1282;22150;-78
2023/07/26 15:07:46;;;;;;;4.90;1.50;;;;;;;;;;110068;1282;22111;-76
2023/07/26 15:10:13;;;;;;;4.80;1.60;;;;;;;;;;110065;1282;22149;-77